Acton, California
Current Conditions -  °F | °C
As of 11:53 AM on Sunday 23 Nov 2014 (Local Time) from KPMD Reporting Station
Clear Clear  
Wind Chill: 63°   Ceiling: Unl
Heat Index: 63°   Visibility: 10mi
Dew Point: 13°   Wind: 17mph
Humidity: 14%   Direction: 60°ENE
Pressure: 30.26"   Gusts: NA
Location:  34.47°N, 118.2°W
Report Text: KPMD 231953Z 06015KT 10SM CLR 17/M11 A3026 RMK AO2 SLP236 T01721106
Loading
Personal Weather Stations






























Interactive Weather Map New forecast layout! Learn more

10-Day Weather Forecast

Advertisements
Track Severe Weather on mobile